sensor_id;sensor_type;location;lat;lon;timestamp;temperature;humidity
26599;DHT22;14240;51.064;16.612;2023-03-02T00:00:45;-0.40;99.90
26599;DHT22;14240;51.064;16.612;2023-03-02T00:03:12;-0.40;99.90
26599;DHT22;14240;51.064;16.612;2023-03-02T00:05:39;-0.40;99.90
26599;DHT22;14240;51.064;16.612;2023-03-02T00:08:07;-0.40;99.90
26599;DHT22;14240;51.064;16.612;2023-03-02T00:10:35;-0.40;99.90
26599;DHT22;14240;51.064;16.612;2023-03-02T00:13:02;-0.40;99.90
26599;DHT22;14240;51.064;16.612;2023-03-02T00:15:28;-0.40;99.90
26599;DHT22;14240;51.064;16.612;2023-03-02T00:17:54;-0.40;99.90
26599;DHT22;14240;51.064;16.612;2023-03-02T00:20:19;-0.40;99.90
26599;DHT22;14240;51.064;16.612;2023-03-02T00:22:45;-0.40;99.90
26599;DHT22;14240;51.064;16.612;2023-03-02T00:25:13;-0.40;99.90
26599;DHT22;14240;51.064;16.612;2023-03-02T00:27:39;-0.40;99.90
26599;DHT22;14240;51.064;16.612;2023-03-02T00:30:05;-0.40;99.90
26599;DHT22;14240;51.064;16.612;2023-03-02T00:32:31;-0.40;99.90
26599;DHT22;14240;51.064;16.612;2023-03-02T00:34:58;-0.50;99.90
26599;DHT22;14240;51.064;16.612;2023-03-02T00:37:24;-0.50;99.90
26599;DHT22;14240;51.064;16.612;2023-03-02T00:39:52;-0.40;99.90
26599;DHT22;14240;51.064;16.612;2023-03-02T00:42:19;-0.50;99.90
26599;DHT22;14240;51.064;16.612;2023-03-02T00:44:45;-0.50;99.90
26599;DHT22;14240;51.064;16.612;2023-03-02T00:47:10;-0.50;99.90
26599;DHT22;14240;51.064;16.612;2023-03-02T00:49:36;-0.50;99.90
26599;DHT22;14240;51.064;16.612;2023-03-02T00:52:03;-0.40;99.90
26599;DHT22;14240;51.064;16.612;2023-03-02T00:54:29;-0.40;99.90
26599;DHT22;14240;51.064;16.612;2023-03-02T00:56:55;-0.50;99.90
26599;DHT22;14240;51.064;16.612;2023-03-02T00:59:20;-0.40;99.90
26599;DHT22;14240;51.064;16.612;2023-03-02T01:01:57;-0.30;99.90
26599;DHT22;14240;51.064;16.612;2023-03-02T01:04:28;-0.40;99.90
26599;DHT22;14240;51.064;16.612;2023-03-02T01:06:56;-0.40;99.90
26599;DHT22;14240;51.064;16.612;2023-03-02T01:09:22;-0.50;99.90
26599;DHT22;14240;51.064;16.612;2023-03-02T01:11:48;-0.50;99.90
26599;DHT22;14240;51.064;16.612;2023-03-02T01:14:14;-0.60;99.90
26599;DHT22;14240;51.064;16.612;2023-03-02T01:16:40;-0.60;99.90
26599;DHT22;14240;51.064;16.612;2023-03-02T01:19:06;-0.70;99.90
26599;DHT22;14240;51.064;16.612;2023-03-02T01:21:32;-0.80;99.90
26599;DHT22;14240;51.064;16.612;2023-03-02T01:23:58;-0.80;99.90
26599;DHT22;14240;51.064;16.612;2023-03-02T01:26:23;-0.80;99.90
26599;DHT22;14240;51.064;16.612;2023-03-02T01:28:49;-0.90;99.90
26599;DHT22;14240;51.064;16.612;2023-03-02T01:31:23;-0.90;99.90
26599;DHT22;14240;51.064;16.612;2023-03-02T01:33:50;-0.90;99.90
26599;DHT22;14240;51.064;16.612;2023-03-02T01:36:16;-0.90;99.90
26599;DHT22;14240;51.064;16.612;2023-03-02T01:38:42;-0.90;99.90
26599;DHT22;14240;51.064;16.612;2023-03-02T01:41:11;-1.00;99.90
26599;DHT22;14240;51.064;16.612;2023-03-02T01:43:37;-0.90;99.90
26599;DHT22;14240;51.064;16.612;2023-03-02T01:51:11;-1.00;99.90
26599;DHT22;14240;51.064;16.612;2023-03-02T01:53:40;-1.00;99.90
26599;DHT22;14240;51.064;16.612;2023-03-02T01:56:13;-1.00;99.90
26599;DHT22;14240;51.064;16.612;2023-03-02T01:58:40;-1.00;99.90
26599;DHT22;14240;51.064;16.612;2023-03-02T02:01:06;-1.10;99.90
26599;DHT22;14240;51.064;16.612;2023-03-02T02:03:42;-1.00;99.90
26599;DHT22;14240;51.064;16.612;2023-03-02T02:06:26;-1.10;99.90
26599;DHT22;14240;51.064;16.612;2023-03-02T02:08:54;-1.10;99.90
26599;DHT22;14240;51.064;16.612;2023-03-02T02:11:20;-1.00;99.90
26599;DHT22;14240;51.064;16.612;2023-03-02T02:13:46;-1.10;99.90
26599;DHT22;14240;51.064;16.612;2023-03-02T02:16:12;-1.10;99.90
26599;DHT22;14240;51.064;16.612;2023-03-02T02:18:39;-1.10;99.90
26599;DHT22;14240;51.064;16.612;2023-03-02T02:21:06;-1.10;99.90
26599;DHT22;14240;51.064;16.612;2023-03-02T02:29:02;-1.20;99.90
26599;DHT22;14240;51.064;16.612;2023-03-02T02:31:45;-1.20;99.90
26599;DHT22;14240;51.064;16.612;2023-03-02T02:36:48;-1.20;99.90
26599;DHT22;14240;51.064;16.612;2023-03-02T02:39:19;-1.20;99.90
26599;DHT22;14240;51.064;16.612;2023-03-02T02:41:47;-1.20;99.90
26599;DHT22;14240;51.064;16.612;2023-03-02T02:44:15;-1.30;99.90
26599;DHT22;14240;51.064;16.612;2023-03-02T02:46:42;-1.30;99.90
26599;DHT22;14240;51.064;16.612;2023-03-02T02:49:33;-1.30;99.90
26599;DHT22;14240;51.064;16.612;2023-03-02T02:52:00;-1.40;99.90
26599;DHT22;14240;51.064;16.612;2023-03-02T02:54:30;-1.40;99.90
26599;DHT22;14240;51.064;16.612;2023-03-02T02:56:58;-1.40;99.90
26599;DHT22;14240;51.064;16.612;2023-03-02T02:59:28;-1.50;99.90
26599;DHT22;14240;51.064;16.612;2023-03-02T03:01:56;-1.50;99.90
26599;DHT22;14240;51.064;16.612;2023-03-02T03:04:25;-1.50;99.90
26599;DHT22;14240;51.064;16.612;2023-03-02T03:07:01;-1.50;99.90
26599;DHT22;14240;51.064;16.612;2023-03-02T03:09:27;-1.50;99.90
26599;DHT22;14240;51.064;16.612;2023-03-02T03:11:56;-1.40;99.90
26599;DHT22;14240;51.064;16.612;2023-03-02T03:14:33;-1.50;99.90
26599;DHT22;14240;51.064;16.612;2023-03-02T03:17:02;-1.50;99.90
26599;DHT22;14240;51.064;16.612;2023-03-02T03:19:30;-1.50;99.90
26599;DHT22;14240;51.064;16.612;2023-03-02T03:21:58;-1.50;99.90
26599;DHT22;14240;51.064;16.612;2023-03-02T03:24:25;-1.50;99.90
26599;DHT22;14240;51.064;16.612;2023-03-02T03:26:52;-1.50;99.90
26599;DHT22;14240;51.064;16.612;2023-03-02T03:29:22;-1.50;99.90
26599;DHT22;14240;51.064;16.612;2023-03-02T03:31:49;-1.50;99.90
26599;DHT22;14240;51.064;16.612;2023-03-02T03:34:15;-1.40;99.90
26599;DHT22;14240;51.064;16.612;2023-03-02T03:36:41;-1.40;99.90
26599;DHT22;14240;51.064;16.612;2023-03-02T03:39:11;-1.50;99.90
26599;DHT22;14240;51.064;16.612;2023-03-02T03:41:37;-1.50;99.90
26599;DHT22;14240;51.064;16.612;2023-03-02T03:44:03;-1.50;99.90
26599;DHT22;14240;51.064;16.612;2023-03-02T03:46:32;-1.40;99.90
26599;DHT22;14240;51.064;16.612;2023-03-02T03:48:58;-1.40;99.90
26599;DHT22;14240;51.064;16.612;2023-03-02T03:51:24;-1.40;99.90
26599;DHT22;14240;51.064;16.612;2023-03-02T03:53:50;-1.40;99.90
26599;DHT22;14240;51.064;16.612;2023-03-02T03:56:34;-1.40;99.90
26599;DHT22;14240;51.064;16.612;2023-03-02T03:59:02;-1.40;99.90
26599;DHT22;14240;51.064;16.612;2023-03-02T04:01:46;-1.30;99.90
26599;DHT22;14240;51.064;16.612;2023-03-02T04:04:16;-1.40;99.90
26599;DHT22;14240;51.064;16.612;2023-03-02T04:06:43;-1.40;99.90
26599;DHT22;14240;51.064;16.612;2023-03-02T04:09:09;-1.40;99.90
26599;DHT22;14240;51.064;16.612;2023-03-02T04:11:38;-1.40;99.90
26599;DHT22;14240;51.064;16.612;2023-03-02T04:14:04;-1.40;99.90
26599;DHT22;14240;51.064;16.612;2023-03-02T04:16:34;-1.40;99.90
26599;DHT22;14240;51.064;16.612;2023-03-02T04:19:00;-1.30;99.90
26599;DHT22;14240;51.064;16.612;2023-03-02T04:21:27;-1.40;99.90
26599;DHT22;14240;51.064;16.612;2023-03-02T04:23:53;-1.30;99.90
26599;DHT22;14240;51.064;16.612;2023-03-02T04:26:18;-1.30;99.90
26599;DHT22;14240;51.064;16.612;2023-03-02T04:28:44;-1.30;99.90
26599;DHT22;14240;51.064;16.612;2023-03-02T04:31:10;-1.30;99.90
26599;DHT22;14240;51.064;16.612;2023-03-02T04:33:35;-1.30;99.90
26599;DHT22;14240;51.064;16.612;2023-03-02T04:36:03;-1.40;99.90
26599;DHT22;14240;51.064;16.612;2023-03-02T04:38:29;-1.40;99.90
26599;DHT22;14240;51.064;16.612;2023-03-02T04:40:56;-1.40;99.90
26599;DHT22;14240;51.064;16.612;2023-03-02T04:43:23;-1.40;99.90
26599;DHT22;14240;51.064;16.612;2023-03-02T04:45:50;-1.50;99.90
26599;DHT22;14240;51.064;16.612;2023-03-02T04:48:16;-1.50;99.90
26599;DHT22;14240;51.064;16.612;2023-03-02T04:50:42;-1.50;99.90
26599;DHT22;14240;51.064;16.612;2023-03-02T04:53:08;-1.50;99.90
26599;DHT22;14240;51.064;16.612;2023-03-02T04:55:33;-1.60;99.90
26599;DHT22;14240;51.064;16.612;2023-03-02T04:57:59;-1.60;99.90
26599;DHT22;14240;51.064;16.612;2023-03-02T05:00:25;-1.60;99.90
26599;DHT22;14240;51.064;16.612;2023-03-02T05:02:53;-1.60;99.90
26599;DHT22;14240;51.064;16.612;2023-03-02T05:05:22;-1.60;99.90
26599;DHT22;14240;51.064;16.612;2023-03-02T05:07:49;-1.70;99.90
26599;DHT22;14240;51.064;16.612;2023-03-02T05:10:16;-1.80;99.90
26599;DHT22;14240;51.064;16.612;2023-03-02T05:12:43;-1.80;99.90
26599;DHT22;14240;51.064;16.612;2023-03-02T05:17:58;-1.90;99.90
26599;DHT22;14240;51.064;16.612;2023-03-02T05:20:25;-1.90;99.90
26599;DHT22;14240;51.064;16.612;2023-03-02T05:22:57;-1.80;99.90
26599;DHT22;14240;51.064;16.612;2023-03-02T05:25:24;-1.90;99.90
26599;DHT22;14240;51.064;16.612;2023-03-02T05:27:50;-1.90;99.90
26599;DHT22;14240;51.064;16.612;2023-03-02T05:30:15;-1.90;99.90
26599;DHT22;14240;51.064;16.612;2023-03-02T05:32:41;-1.90;99.90
26599;DHT22;14240;51.064;16.612;2023-03-02T05:35:07;-1.90;99.90
26599;DHT22;14240;51.064;16.612;2023-03-02T05:37:33;-1.90;99.90
26599;DHT22;14240;51.064;16.612;2023-03-02T05:39:59;-1.70;99.90
26599;DHT22;14240;51.064;16.612;2023-03-02T05:42:25;-1.80;99.90
26599;DHT22;14240;51.064;16.612;2023-03-02T05:44:51;-1.90;99.90
26599;DHT22;14240;51.064;16.612;2023-03-02T05:47:16;-1.80;99.90
26599;DHT22;14240;51.064;16.612;2023-03-02T05:49:42;-1.90;99.90
26599;DHT22;14240;51.064;16.612;2023-03-02T05:52:08;-2.00;99.90
26599;DHT22;14240;51.064;16.612;2023-03-02T05:54:33;-1.90;99.90
26599;DHT22;14240;51.064;16.612;2023-03-02T05:56:59;-2.00;99.90
26599;DHT22;14240;51.064;16.612;2023-03-02T05:59:24;-1.90;99.90
26599;DHT22;14240;51.064;16.612;2023-03-02T06:01:50;-1.90;99.90
26599;DHT22;14240;51.064;16.612;2023-03-02T06:04:19;-1.90;99.90
26599;DHT22;14240;51.064;16.612;2023-03-02T06:06:44;-1.90;99.90
26599;DHT22;14240;51.064;16.612;2023-03-02T06:09:10;-1.80;99.90
26599;DHT22;14240;51.064;16.612;2023-03-02T06:11:36;-1.90;99.90
26599;DHT22;14240;51.064;16.612;2023-03-02T06:14:01;-1.90;99.90
26599;DHT22;14240;51.064;16.612;2023-03-02T06:16:27;-1.80;99.90
26599;DHT22;14240;51.064;16.612;2023-03-02T06:18:53;-1.80;99.90
26599;DHT22;14240;51.064;16.612;2023-03-02T06:21:18;-1.80;99.90
26599;DHT22;14240;51.064;16.612;2023-03-02T06:23:44;-1.70;99.90
26599;DHT22;14240;51.064;16.612;2023-03-02T06:26:10;-1.70;99.90
26599;DHT22;14240;51.064;16.612;2023-03-02T06:28:37;-1.60;99.90
26599;DHT22;14240;51.064;16.612;2023-03-02T06:31:03;-1.60;99.90
26599;DHT22;14240;51.064;16.612;2023-03-02T06:33:29;-1.60;99.90
26599;DHT22;14240;51.064;16.612;2023-03-02T06:35:55;-1.50;99.90
26599;DHT22;14240;51.064;16.612;2023-03-02T06:38:21;-1.40;99.90
26599;DHT22;14240;51.064;16.612;2023-03-02T06:40:47;-1.40;99.90
26599;DHT22;14240;51.064;16.612;2023-03-02T06:43:13;-1.20;99.90
26599;DHT22;14240;51.064;16.612;2023-03-02T06:45:38;-1.20;99.90
26599;DHT22;14240;51.064;16.612;2023-03-02T06:48:05;-1.00;99.90
26599;DHT22;14240;51.064;16.612;2023-03-02T06:50:31;-0.80;99.90
26599;DHT22;14240;51.064;16.612;2023-03-02T06:52:57;-0.70;99.90
26599;DHT22;14240;51.064;16.612;2023-03-02T06:55:23;-0.50;99.90
26599;DHT22;14240;51.064;16.612;2023-03-02T06:57:48;-0.20;99.90
26599;DHT22;14240;51.064;16.612;2023-03-02T07:00:15;0.10;99.90
26599;DHT22;14240;51.064;16.612;2023-03-02T07:02:50;0.50;99.90
26599;DHT22;14240;51.064;16.612;2023-03-02T07:05:16;1.00;99.90
26599;DHT22;14240;51.064;16.612;2023-03-02T07:07:42;1.50;99.90
26599;DHT22;14240;51.064;16.612;2023-03-02T07:10:08;2.10;99.90
26599;DHT22;14240;51.064;16.612;2023-03-02T07:12:35;2.60;99.90
26599;DHT22;14240;51.064;16.612;2023-03-02T07:15:01;3.30;99.90
26599;DHT22;14240;51.064;16.612;2023-03-02T07:17:27;3.90;99.90
26599;DHT22;14240;51.064;16.612;2023-03-02T07:19:53;4.60;99.90
26599;DHT22;14240;51.064;16.612;2023-03-02T07:22:18;5.20;99.90
26599;DHT22;14240;51.064;16.612;2023-03-02T07:24:44;5.80;99.90
26599;DHT22;14240;51.064;16.612;2023-03-02T07:27:10;6.50;99.90
26599;DHT22;14240;51.064;16.612;2023-03-02T07:29:35;7.10;99.90
26599;DHT22;14240;51.064;16.612;2023-03-02T07:32:01;7.70;99.90
26599;DHT22;14240;51.064;16.612;2023-03-02T07:34:27;8.40;99.90
26599;DHT22;14240;51.064;16.612;2023-03-02T07:36:53;9.10;99.90
26599;DHT22;14240;51.064;16.612;2023-03-02T07:39:19;9.80;99.90
26599;DHT22;14240;51.064;16.612;2023-03-02T07:41:45;10.50;99.90
26599;DHT22;14240;51.064;16.612;2023-03-02T07:44:11;11.40;99.90
26599;DHT22;14240;51.064;16.612;2023-03-02T07:46:36;12.20;99.90
26599;DHT22;14240;51.064;16.612;2023-03-02T07:49:02;13.00;99.90
26599;DHT22;14240;51.064;16.612;2023-03-02T07:51:29;13.80;98.40
26599;DHT22;14240;51.064;16.612;2023-03-02T07:53:54;14.50;96.40
26599;DHT22;14240;51.064;16.612;2023-03-02T07:56:20;15.20;94.70
26599;DHT22;14240;51.064;16.612;2023-03-02T07:58:46;15.90;92.60
26599;DHT22;14240;51.064;16.612;2023-03-02T08:01:12;16.50;90.20
26599;DHT22;14240;51.064;16.612;2023-03-02T08:03:38;17.10;86.40
26599;DHT22;14240;51.064;16.612;2023-03-02T08:06:09;17.70;82.90
26599;DHT22;14240;51.064;16.612;2023-03-02T08:08:35;18.30;78.60
26599;DHT22;14240;51.064;16.612;2023-03-02T08:11:09;19.00;75.70
26599;DHT22;14240;51.064;16.612;2023-03-02T08:13:35;19.60;69.60
26599;DHT22;14240;51.064;16.612;2023-03-02T08:16:03;20.20;66.30
26599;DHT22;14240;51.064;16.612;2023-03-02T08:18:30;20.70;63.20
26599;DHT22;14240;51.064;16.612;2023-03-02T08:20:58;21.40;60.80
26599;DHT22;14240;51.064;16.612;2023-03-02T08:23:27;22.00;57.90
26599;DHT22;14240;51.064;16.612;2023-03-02T08:25:54;22.50;55.90
26599;DHT22;14240;51.064;16.612;2023-03-02T08:28:20;23.00;54.00
26599;DHT22;14240;51.064;16.612;2023-03-02T08:30:57;23.50;51.80
26599;DHT22;14240;51.064;16.612;2023-03-02T08:33:23;24.00;49.90
26599;DHT22;14240;51.064;16.612;2023-03-02T08:35:59;24.30;49.50
26599;DHT22;14240;51.064;16.612;2023-03-02T08:38:25;24.70;47.90
26599;DHT22;14240;51.064;16.612;2023-03-02T08:40:52;25.30;47.40
26599;DHT22;14240;51.064;16.612;2023-03-02T08:43:22;25.60;46.10
26599;DHT22;14240;51.064;16.612;2023-03-02T08:45:55;25.90;45.10
26599;DHT22;14240;51.064;16.612;2023-03-02T08:48:24;26.10;43.80
26599;DHT22;14240;51.064;16.612;2023-03-02T08:51:00;26.20;43.50
26599;DHT22;14240;51.064;16.612;2023-03-02T08:53:26;26.30;42.90
26599;DHT22;14240;51.064;16.612;2023-03-02T08:55:52;26.60;42.70
26599;DHT22;14240;51.064;16.612;2023-03-02T08:58:18;26.80;42.20
26599;DHT22;14240;51.064;16.612;2023-03-02T09:00:44;27.00;41.70
26599;DHT22;14240;51.064;16.612;2023-03-02T09:03:10;27.10;41.40
26599;DHT22;14240;51.064;16.612;2023-03-02T09:05:36;27.30;40.80
26599;DHT22;14240;51.064;16.612;2023-03-02T09:08:02;27.40;40.40
26599;DHT22;14240;51.064;16.612;2023-03-02T09:10:28;27.50;40.10
26599;DHT22;14240;51.064;16.612;2023-03-02T09:12:53;27.50;40.20
26599;DHT22;14240;51.064;16.612;2023-03-02T09:15:19;27.60;39.70
26599;DHT22;14240;51.064;16.612;2023-03-02T09:17:45;27.80;39.20
26599;DHT22;14240;51.064;16.612;2023-03-02T09:20:11;28.00;39.20
26599;DHT22;14240;51.064;16.612;2023-03-02T09:22:36;28.20;38.40
26599;DHT22;14240;51.064;16.612;2023-03-02T09:25:03;28.20;37.70
26599;DHT22;14240;51.064;16.612;2023-03-02T09:27:29;28.30;37.70
26599;DHT22;14240;51.064;16.612;2023-03-02T09:29:55;28.40;37.40
26599;DHT22;14240;51.064;16.612;2023-03-02T09:32:21;28.40;36.70
26599;DHT22;14240;51.064;16.612;2023-03-02T09:34:46;28.40;36.40
26599;DHT22;14240;51.064;16.612;2023-03-02T09:37:12;28.30;36.40
26599;DHT22;14240;51.064;16.612;2023-03-02T09:39:38;28.20;35.90
26599;DHT22;14240;51.064;16.612;2023-03-02T09:57:38;26.20;36.10
26599;DHT22;14240;51.064;16.612;2023-03-02T10:00:11;25.30;36.90
26599;DHT22;14240;51.064;16.612;2023-03-02T10:05:17;23.50;38.30
26599;DHT22;14240;51.064;16.612;2023-03-02T10:07:45;22.70;39.70
26599;DHT22;14240;51.064;16.612;2023-03-02T10:10:17;22.10;40.30
26599;DHT22;14240;51.064;16.612;2023-03-02T10:13:15;21.40;40.50
26599;DHT22;14240;51.064;16.612;2023-03-02T10:18:42;20.10;41.70
26599;DHT22;14240;51.064;16.612;2023-03-02T10:21:21;19.60;42.60
26599;DHT22;14240;51.064;16.612;2023-03-02T10:23:55;19.10;42.30
26599;DHT22;14240;51.064;16.612;2023-03-02T10:31:51;17.80;44.60
26599;DHT22;14240;51.064;16.612;2023-03-02T10:34:23;17.40;45.00
26599;DHT22;14240;51.064;16.612;2023-03-02T10:36:49;17.10;45.50
26599;DHT22;14240;51.064;16.612;2023-03-02T10:39:16;16.80;45.10
26599;DHT22;14240;51.064;16.612;2023-03-02T10:44:34;16.10;46.20
26599;DHT22;14240;51.064;16.612;2023-03-02T10:47:04;15.80;47.10
26599;DHT22;14240;51.064;16.612;2023-03-02T10:49:35;15.70;47.60
26599;DHT22;14240;51.064;16.612;2023-03-02T10:52:14;15.50;47.50
26599;DHT22;14240;51.064;16.612;2023-03-02T10:54:40;15.40;48.00
26599;DHT22;14240;51.064;16.612;2023-03-02T11:02:32;14.80;49.20
26599;DHT22;14240;51.064;16.612;2023-03-02T11:07:51;14.30;49.60
26599;DHT22;14240;51.064;16.612;2023-03-02T11:10:20;14.10;49.90
26599;DHT22;14240;51.064;16.612;2023-03-02T11:12:49;14.00;50.10
26599;DHT22;14240;51.064;16.612;2023-03-02T11:15:24;13.80;50.50
26599;DHT22;14240;51.064;16.612;2023-03-02T11:20:33;13.40;52.40
26599;DHT22;14240;51.064;16.612;2023-03-02T11:23:22;13.30;51.90
26599;DHT22;14240;51.064;16.612;2023-03-02T11:25:56;13.20;51.90
26599;DHT22;14240;51.064;16.612;2023-03-02T11:28:33;13.00;52.30
26599;DHT22;14240;51.064;16.612;2023-03-02T11:31:03;12.90;52.40
26599;DHT22;14240;51.064;16.612;2023-03-02T11:33:38;12.70;52.80
26599;DHT22;14240;51.064;16.612;2023-03-02T11:36:10;12.60;53.30
26599;DHT22;14240;51.064;16.612;2023-03-02T11:38:46;12.60;53.50
26599;DHT22;14240;51.064;16.612;2023-03-02T11:41:28;12.40;53.70
26599;DHT22;14240;51.064;16.612;2023-03-02T11:43:57;12.40;54.10
26599;DHT22;14240;51.064;16.612;2023-03-02T11:46:26;12.20;54.20
26599;DHT22;14240;51.064;16.612;2023-03-02T11:48:58;12.20;54.60
26599;DHT22;14240;51.064;16.612;2023-03-02T11:51:33;12.10;54.90
26599;DHT22;14240;51.064;16.612;2023-03-02T11:54:31;12.00;54.90
26599;DHT22;14240;51.064;16.612;2023-03-02T11:56:58;11.90;55.20
26599;DHT22;14240;51.064;16.612;2023-03-02T11:59:25;11.80;55.60
26599;DHT22;14240;51.064;16.612;2023-03-02T12:01:53;11.80;56.40
26599;DHT22;14240;51.064;16.612;2023-03-02T12:04:36;11.80;56.00
26599;DHT22;14240;51.064;16.612;2023-03-02T12:07:15;11.70;56.30
26599;DHT22;14240;51.064;16.612;2023-03-02T12:09:41;11.60;56.30
26599;DHT22;14240;51.064;16.612;2023-03-02T12:14:54;11.40;56.70
26599;DHT22;14240;51.064;16.612;2023-03-02T12:19:46;11.40;57.00
26599;DHT22;14240;51.064;16.612;2023-03-02T12:22:12;11.30;56.80
26599;DHT22;14240;51.064;16.612;2023-03-02T12:24:43;11.20;56.70
26599;DHT22;14240;51.064;16.612;2023-03-02T12:29:43;11.00;57.50
26599;DHT22;14240;51.064;16.612;2023-03-02T12:35:07;11.00;58.00
26599;DHT22;14240;51.064;16.612;2023-03-02T12:37:51;11.00;58.00
26599;DHT22;14240;51.064;16.612;2023-03-02T12:43:19;10.90;58.60
26599;DHT22;14240;51.064;16.612;2023-03-02T12:48:28;10.70;58.80
26599;DHT22;14240;51.064;16.612;2023-03-02T12:50:59;10.70;59.10
26599;DHT22;14240;51.064;16.612;2023-03-02T12:53:26;10.60;59.30
26599;DHT22;14240;51.064;16.612;2023-03-02T12:55:52;10.50;59.60
26599;DHT22;14240;51.064;16.612;2023-03-02T12:58:26;10.50;59.90
26599;DHT22;14240;51.064;16.612;2023-03-02T13:01:00;10.40;60.40
26599;DHT22;14240;51.064;16.612;2023-03-02T13:03:28;10.30;60.70
26599;DHT22;14240;51.064;16.612;2023-03-02T13:06:12;10.20;61.10
26599;DHT22;14240;51.064;16.612;2023-03-02T13:08:39;10.20;61.60
26599;DHT22;14240;51.064;16.612;2023-03-02T13:11:07;9.80;61.60
26599;DHT22;14240;51.064;16.612;2023-03-02T13:13:40;10.20;62.20
26599;DHT22;14240;51.064;16.612;2023-03-02T13:16:24;10.10;62.40
26599;DHT22;14240;51.064;16.612;2023-03-02T13:18:54;10.00;62.70
26599;DHT22;14240;51.064;16.612;2023-03-02T13:21:35;9.90;63.00
26599;DHT22;14240;51.064;16.612;2023-03-02T13:24:02;9.90;63.70
26599;DHT22;14240;51.064;16.612;2023-03-02T13:26:31;9.80;63.90
26599;DHT22;14240;51.064;16.612;2023-03-02T13:29:05;9.70;64.30
26599;DHT22;14240;51.064;16.612;2023-03-02T13:31:32;9.70;64.60
26599;DHT22;14240;51.064;16.612;2023-03-02T13:33:58;9.60;64.70
26599;DHT22;14240;51.064;16.612;2023-03-02T13:36:27;9.50;64.80
26599;DHT22;14240;51.064;16.612;2023-03-02T13:38:58;9.50;64.90
26599;DHT22;14240;51.064;16.612;2023-03-02T13:41:29;9.50;65.30
26599;DHT22;14240;51.064;16.612;2023-03-02T13:43:56;9.40;65.30
26599;DHT22;14240;51.064;16.612;2023-03-02T13:46:36;9.50;65.40
26599;DHT22;14240;51.064;16.612;2023-03-02T13:49:06;9.40;65.30
26599;DHT22;14240;51.064;16.612;2023-03-02T13:51:43;9.40;65.40
26599;DHT22;14240;51.064;16.612;2023-03-02T13:54:30;9.40;65.90
26599;DHT22;14240;51.064;16.612;2023-03-02T13:56:58;9.30;66.10
26599;DHT22;14240;51.064;16.612;2023-03-02T13:59:26;9.30;66.10
26599;DHT22;14240;51.064;16.612;2023-03-02T14:01:51;9.30;66.50
26599;DHT22;14240;51.064;16.612;2023-03-02T14:04:19;9.30;66.90
26599;DHT22;14240;51.064;16.612;2023-03-02T14:06:49;9.30;67.10
26599;DHT22;14240;51.064;16.612;2023-03-02T14:09:15;9.30;67.20
26599;DHT22;14240;51.064;16.612;2023-03-02T14:11:46;9.30;67.60
26599;DHT22;14240;51.064;16.612;2023-03-02T14:14:16;9.30;67.80
26599;DHT22;14240;51.064;16.612;2023-03-02T14:16:42;9.30;67.80
26599;DHT22;14240;51.064;16.612;2023-03-02T14:19:12;9.30;67.90
26599;DHT22;14240;51.064;16.612;2023-03-02T14:21:40;9.30;68.00
26599;DHT22;14240;51.064;16.612;2023-03-02T14:24:08;9.30;67.90
26599;DHT22;14240;51.064;16.612;2023-03-02T14:26:36;9.30;68.00
26599;DHT22;14240;51.064;16.612;2023-03-02T14:29:26;9.30;68.00
26599;DHT22;14240;51.064;16.612;2023-03-02T14:31:57;9.20;68.10
26599;DHT22;14240;51.064;16.612;2023-03-02T14:34:31;9.20;68.20
26599;DHT22;14240;51.064;16.612;2023-03-02T14:36:59;9.20;68.50
26599;DHT22;14240;51.064;16.612;2023-03-02T14:39:34;9.20;68.80
26599;DHT22;14240;51.064;16.612;2023-03-02T14:42:01;9.20;69.00
26599;DHT22;14240;51.064;16.612;2023-03-02T14:44:27;9.20;69.20
26599;DHT22;14240;51.064;16.612;2023-03-02T14:46:53;9.20;69.30
26599;DHT22;14240;51.064;16.612;2023-03-02T14:49:20;9.20;69.10
26599;DHT22;14240;51.064;16.612;2023-03-02T14:52:00;9.10;69.20
26599;DHT22;14240;51.064;16.612;2023-03-02T14:54:40;9.10;69.30
26599;DHT22;14240;51.064;16.612;2023-03-02T14:57:20;9.10;69.20
26599;DHT22;14240;51.064;16.612;2023-03-02T14:59:47;9.10;69.50
26599;DHT22;14240;51.064;16.612;2023-03-02T15:02:13;9.10;69.50
26599;DHT22;14240;51.064;16.612;2023-03-02T15:04:38;9.80;70.10
26599;DHT22;14240;51.064;16.612;2023-03-02T15:07:04;9.10;69.80
26599;DHT22;14240;51.064;16.612;2023-03-02T15:09:30;9.00;69.90
26599;DHT22;14240;51.064;16.612;2023-03-02T15:11:56;9.20;70.10
26599;DHT22;14240;51.064;16.612;2023-03-02T15:14:22;9.00;70.10
26599;DHT22;14240;51.064;16.612;2023-03-02T15:16:47;9.00;70.60
26599;DHT22;14240;51.064;16.612;2023-03-02T15:19:13;8.90;70.70
26599;DHT22;14240;51.064;16.612;2023-03-02T15:21:39;8.90;71.00
26599;DHT22;14240;51.064;16.612;2023-03-02T15:24:09;8.90;71.20
26599;DHT22;14240;51.064;16.612;2023-03-02T15:26:35;8.90;71.30
26599;DHT22;14240;51.064;16.612;2023-03-02T15:29:01;8.90;71.30
26599;DHT22;14240;51.064;16.612;2023-03-02T15:31:26;8.80;71.30
26599;DHT22;14240;51.064;16.612;2023-03-02T15:33:54;8.80;71.30
26599;DHT22;14240;51.064;16.612;2023-03-02T15:36:20;8.80;71.50
26599;DHT22;14240;51.064;16.612;2023-03-02T15:38:51;8.70;71.50
26599;DHT22;14240;51.064;16.612;2023-03-02T15:41:17;8.80;71.90
26599;DHT22;14240;51.064;16.612;2023-03-02T15:43:43;8.70;72.10
26599;DHT22;14240;51.064;16.612;2023-03-02T15:46:09;8.70;72.50
26599;DHT22;14240;51.064;16.612;2023-03-02T15:48:36;8.70;73.10
26599;DHT22;14240;51.064;16.612;2023-03-02T15:51:05;8.60;73.50
26599;DHT22;14240;51.064;16.612;2023-03-02T15:53:33;8.60;73.90
26599;DHT22;14240;51.064;16.612;2023-03-02T15:56:02;8.60;74.20
26599;DHT22;14240;51.064;16.612;2023-03-02T15:58:28;8.50;74.30
26599;DHT22;14240;51.064;16.612;2023-03-02T16:00:53;8.40;74.40
26599;DHT22;14240;51.064;16.612;2023-03-02T16:03:22;8.40;74.70
26599;DHT22;14240;51.064;16.612;2023-03-02T16:05:47;8.40;75.30
26599;DHT22;14240;51.064;16.612;2023-03-02T16:08:13;8.40;75.60
26599;DHT22;14240;51.064;16.612;2023-03-02T16:10:39;8.30;75.80
26599;DHT22;14240;51.064;16.612;2023-03-02T16:13:08;8.20;75.90
26599;DHT22;14240;51.064;16.612;2023-03-02T16:15:38;8.20;76.10
26599;DHT22;14240;51.064;16.612;2023-03-02T16:18:06;8.10;76.30
26599;DHT22;14240;51.064;16.612;2023-03-02T16:20:33;8.10;76.90
26599;DHT22;14240;51.064;16.612;2023-03-02T16:23:00;8.00;77.40
26599;DHT22;14240;51.064;16.612;2023-03-02T16:25:31;7.90;77.90
26599;DHT22;14240;51.064;16.612;2023-03-02T16:27:59;7.80;78.50
26599;DHT22;14240;51.064;16.612;2023-03-02T16:30:25;7.70;79.00
26599;DHT22;14240;51.064;16.612;2023-03-02T16:32:51;7.70;79.60
26599;DHT22;14240;51.064;16.612;2023-03-02T16:35:16;7.60;79.80
26599;DHT22;14240;51.064;16.612;2023-03-02T16:37:42;7.50;79.90
26599;DHT22;14240;51.064;16.612;2023-03-02T16:40:09;7.30;81.50